Time;durP1;ratioP1;P1;durP2;ratioP2;P2;SDS_P1;SDS_P2;PMS_P1;PMS_P2;Temp;Humidity;BMP_temperature;BMP_pressure;BME280_temperature;BME280_humidity;BME280_pressure;Samples;Min_cycle;Max_cycle;Signal;HPM_P1;HPM_P2
2024/03/15 00:01:37;;;;;;;;;;;8.00;3.40;;;;;;5053028;28;19916;-75
2024/03/15 00:04:03;;;;;;;;;;;8.10;5.10;;;;;;5056690;28;19909;-74
2024/03/15 00:06:29;;;;;;;;;;;8.10;5.60;;;;;;5049312;28;19909;-74
2024/03/15 00:08:57;;;;;;;;;;;8.10;5.80;;;;;;5048620;28;19920;-74
2024/03/15 00:11:32;;;;;;;;;;;8.00;6.70;;;;;;5045627;28;19975;-74
2024/03/15 00:14:03;;;;;;;;;;;8.10;4.10;;;;;;5054731;28;19915;-74
2024/03/15 00:16:28;;;;;;;;;;;8.10;7.10;;;;;;5038484;28;19959;-75
2024/03/15 00:18:55;;;;;;;;;;;8.10;7.30;;;;;;5052521;28;19948;-75
2024/03/15 00:21:23;;;;;;;;;;;8.10;7.30;;;;;;5053958;28;19917;-74
2024/03/15 00:23:51;;;;;;;;;;;8.10;7.00;;;;;;5056418;28;19912;-75
2024/03/15 00:26:17;;;;;;;;;;;8.10;6.70;;;;;;5056222;28;19920;-74
2024/03/15 00:28:45;;;;;;;;;;;8.10;5.80;;;;;;5048070;28;19913;-74
2024/03/15 00:31:10;;;;;;;;;;;8.10;7.20;;;;;;5055941;28;19916;-75
2024/03/15 00:33:38;;;;;;;;;;;8.00;7.10;;;;;;5049802;28;19917;-75
2024/03/15 00:36:04;;;;;;;;;;;8.10;9.30;;;;;;5038104;28;19913;-75
2024/03/15 00:38:29;;;;;;;;;;;8.20;10.50;;;;;;5036962;28;19916;-76
2024/03/15 00:40:55;;;;;;;;;;;8.20;11.20;;;;;;5038215;28;19956;-75
2024/03/15 00:43:21;;;;;;;;;;;8.30;12.80;;;;;;5031519;28;19951;-75
2024/03/15 00:45:46;;;;;;;;;;;8.30;12.50;;;;;;5036719;28;19936;-74
2024/03/15 00:48:12;;;;;;;;;;;8.30;12.50;;;;;;5050026;28;19999;-74
2024/03/15 00:50:38;;;;;;;;;;;8.40;11.90;;;;;;5040643;28;20000;-74
2024/03/15 00:53:10;;;;;;;;;;;8.40;11.30;;;;;;5056163;28;19917;-75
2024/03/15 00:55:35;;;;;;;;;;;8.50;9.50;;;;;;5054761;28;19916;-75
2024/03/15 00:58:03;;;;;;;;;;;8.50;8.60;;;;;;5036425;28;19909;-74
2024/03/15 01:00:28;;;;;;;;;;;8.60;5.00;;;;;;5037941;28;20323;-76
2024/03/15 01:02:57;;;;;;;;;;;8.60;6.20;;;;;;5048260;28;19920;-76
2024/03/15 01:05:34;;;;;;;;;;;8.70;5.90;;;;;;5049271;28;20007;-77
2024/03/15 01:11:03;;;;;;;;;;;8.70;10.60;;;;;;5055191;28;19974;-76
2024/03/15 01:13:28;;;;;;;;;;;8.70;10.20;;;;;;5040857;28;20509;-76
2024/03/15 01:15:57;;;;;;;;;;;8.70;10.20;;;;;;5036175;28;19910;-76
2024/03/15 01:18:22;;;;;;;;;;;8.70;6.70;;;;;;5037690;28;19920;-76
2024/03/15 01:20:57;;;;;;;;;;;8.70;8.80;;;;;;5035866;28;19909;-76
2024/03/15 01:23:22;;;;;;;;;;;8.70;3.90;;;;;;5037202;28;19913;-76
2024/03/15 01:25:57;;;;;;;;;;;8.70;5.80;;;;;;5048374;28;19962;-76
2024/03/15 01:28:22;;;;;;;;;;;8.70;1.00;;;;;;5036687;28;19924;-77
2024/03/15 01:30:59;;;;;;;;;;;8.70;1.00;;;;;;5036002;28;19909;-76
2024/03/15 01:33:25;;;;;;;;;;;8.70;1.00;;;;;;5048602;28;20280;-76
2024/03/15 01:35:51;;;;;;;;;;;8.70;1.00;;;;;;5036253;28;20360;-76
2024/03/15 01:38:33;;;;;;;;;;;8.60;1.00;;;;;;5035754;28;19920;-76
2024/03/15 01:41:03;;;;;;;;;;;8.60;1.00;;;;;;5037134;28;20007;-76
2024/03/15 01:43:28;;;;;;;;;;;8.60;1.80;;;;;;5040087;28;19913;-76
2024/03/15 01:45:54;;;;;;;;;;;8.60;1.00;;;;;;5040835;28;19909;-76
2024/03/15 01:48:21;;;;;;;;;;;8.60;2.40;;;;;;5035353;28;20372;-76
2024/03/15 01:50:47;;;;;;;;;;;;;;;;;;5035521;28;19931;-76
2024/03/15 01:53:21;;;;;;;;;;;8.60;1.00;;;;;;5036456;28;19924;-76
2024/03/15 01:55:47;;;;;;;;;;;8.60;3.50;;;;;;5037466;28;19917;-76
2024/03/15 01:58:12;;;;;;;;;;;8.70;3.60;;;;;;5037226;28;19996;-76
2024/03/15 02:00:41;;;;;;;;;;;8.70;4.30;;;;;;5055326;28;20007;-76
2024/03/15 02:03:06;;;;;;;;;;;8.60;2.60;;;;;;5054358;28;20326;-77
2024/03/15 02:05:32;;;;;;;;;;;8.60;5.00;;;;;;5045712;28;19910;-76
2024/03/15 02:08:07;;;;;;;;;;;8.60;4.80;;;;;;5035197;28;19992;-76
2024/03/15 02:10:39;;;;;;;;;;;8.60;6.90;;;;;;5035517;28;19963;-76
2024/03/15 02:13:04;;;;;;;;;;;8.60;7.90;;;;;;5047451;28;19911;-76
2024/03/15 02:15:30;;;;;;;;;;;8.50;6.70;;;;;;5046959;28;20028;-74
2024/03/15 02:17:56;;;;;;;;;;;8.50;11.30;;;;;;5036582;28;20304;-75
2024/03/15 02:20:21;;;;;;;;;;;8.50;8.90;;;;;;5035109;28;19913;-75
2024/03/15 02:22:47;;;;;;;;;;;8.40;11.80;;;;;;5017736;28;19917;-75
2024/03/15 02:25:13;;;;;;;;;;;8.40;12.80;;;;;;5044885;28;20399;-74
2024/03/15 02:27:38;;;;;;;;;;;8.40;15.80;;;;;;5050601;28;19910;-74
2024/03/15 02:30:09;;;;;;;;;;;8.30;13.50;;;;;;5035134;28;20321;-75
2024/03/15 02:32:45;;;;;;;;;;;8.30;14.40;;;;;;5037735;28;19916;-76
2024/03/15 02:35:21;;;;;;;;;;;8.30;15.50;;;;;;5033752;28;20011;-76
2024/03/15 02:38:03;;;;;;;;;;;8.30;16.20;;;;;;5040456;28;19909;-76
2024/03/15 02:40:45;;;;;;;;;;;8.30;17.30;;;;;;5036958;28;19909;-76
2024/03/15 02:43:10;;;;;;;;;;;8.30;15.70;;;;;;5042861;28;20004;-76
2024/03/15 02:45:39;;;;;;;;;;;8.30;18.70;;;;;;5047552;28;19949;-75
2024/03/15 02:48:04;;;;;;;;;;;8.20;18.00;;;;;;5034539;28;19909;-75
2024/03/15 02:50:30;;;;;;;;;;;8.20;17.70;;;;;;5038267;28;20024;-74
2024/03/15 02:52:57;;;;;;;;;;;8.20;18.00;;;;;;5034263;28;19917;-75
2024/03/15 02:55:24;;;;;;;;;;;8.20;19.20;;;;;;5030529;28;20293;-75
2024/03/15 02:57:50;;;;;;;;;;;8.10;19.80;;;;;;5045078;28;20315;-75
2024/03/15 03:00:15;;;;;;;;;;;8.10;19.50;;;;;;5039734;28;20015;-75
2024/03/15 03:02:41;;;;;;;;;;;8.10;19.70;;;;;;5034179;28;19913;-75
2024/03/15 03:05:08;;;;;;;;;;;8.00;22.60;;;;;;5035783;28;19920;-74
2024/03/15 03:07:45;;;;;;;;;;;8.00;23.80;;;;;;5041934;28;19909;-75
2024/03/15 03:10:10;;;;;;;;;;;8.00;24.60;;;;;;5043484;28;19956;-74
2024/03/15 03:12:45;;;;;;;;;;;8.00;22.50;;;;;;5043937;28;20329;-75
2024/03/15 03:15:15;;;;;;;;;;;8.00;25.90;;;;;;5042789;28;19916;-75
2024/03/15 03:17:40;;;;;;;;;;;7.90;24.60;;;;;;5037964;28;19964;-75
2024/03/15 03:20:18;;;;;;;;;;;7.90;27.70;;;;;;5037496;28;19913;-75
2024/03/15 03:22:51;;;;;;;;;;;7.90;23.70;;;;;;5039984;28;19917;-74
2024/03/15 03:25:18;;;;;;;;;;;7.90;26.60;;;;;;5037022;28;19955;-74
2024/03/15 03:27:44;;;;;;;;;;;7.90;27.90;;;;;;5036622;28;19916;-74
2024/03/15 03:30:10;;;;;;;;;;;8.00;24.90;;;;;;5037756;28;19913;-74
2024/03/15 03:32:45;;;;;;;;;;;8.00;26.60;;;;;;5038101;28;20269;-76
2024/03/15 03:35:27;;;;;;;;;;;8.10;23.10;;;;;;5040478;28;19913;-77
2024/03/15 03:38:03;;;;;;;;;;;8.10;25.60;;;;;;5034021;28;19909;-76
2024/03/15 03:40:28;;;;;;;;;;;8.00;26.20;;;;;;5048266;28;19912;-76
2024/03/15 03:42:57;;;;;;;;;;;8.00;27.00;;;;;;5038173;28;19917;-76
2024/03/15 03:45:35;;;;;;;;;;;8.10;24.90;;;;;;5046862;28;19935;-76
2024/03/15 03:48:15;;;;;;;;;;;8.10;21.70;;;;;;5038423;28;19913;-74
2024/03/15 03:50:42;;;;;;;;;;;8.10;23.90;;;;;;5037774;28;19920;-75
2024/03/15 03:53:09;;;;;;;;;;;8.10;21.50;;;;;;5044440;28;20426;-75
2024/03/15 03:55:35;;;;;;;;;;;8.10;24.60;;;;;;5035896;28;19935;-74
2024/03/15 03:58:03;;;;;;;;;;;8.20;24.40;;;;;;5037409;28;20313;-74
2024/03/15 04:00:45;;;;;;;;;;;8.20;24.10;;;;;;5039970;28;20037;-75
2024/03/15 04:03:12;;;;;;;;;;;8.20;21.30;;;;;;5047320;28;19917;-75
2024/03/15 04:05:39;;;;;;;;;;;8.10;24.40;;;;;;5037095;28;19964;-74
2024/03/15 04:08:04;;;;;;;;;;;8.20;26.10;;;;;;5042067;28;19908;-74
2024/03/15 04:10:35;;;;;;;;;;;8.30;26.40;;;;;;5037549;28;19913;-74
2024/03/15 04:13:01;;;;;;;;;;;8.30;25.60;;;;;;5035211;28;19916;-75
2024/03/15 04:15:27;;;;;;;;;;;8.30;25.00;;;;;;5045155;28;19917;-75
2024/03/15 04:17:52;;;;;;;;;;;8.30;25.30;;;;;;5042171;28;20284;-76
2024/03/15 04:20:22;;;;;;;;;;;8.40;26.30;;;;;;5043576;28;19920;-77
2024/03/15 04:23:03;;;;;;;;;;;8.50;29.40;;;;;;5054988;28;19916;-76
2024/03/15 04:25:39;;;;;;;;;;;8.50;33.30;;;;;;5037002;28;20319;-76
2024/03/15 04:28:04;;;;;;;;;;;8.50;34.90;;;;;;5052237;28;19963;-76
2024/03/15 04:30:45;;;;;;;;;;;8.60;41.40;;;;;;5039037;28;19917;-77
2024/03/15 04:33:11;;;;;;;;;;;8.60;41.60;;;;;;5039462;28;20364;-76
2024/03/15 04:35:40;;;;;;;;;;;8.70;41.60;;;;;;5055290;28;19920;-76
2024/03/15 04:38:15;;;;;;;;;;;8.70;41.70;;;;;;5036596;28;19913;-76
2024/03/15 04:40:51;;;;;;;;;;;8.70;41.70;;;;;;5052846;28;19913;-76
2024/03/15 04:43:21;;;;;;;;;;;8.70;32.50;;;;;;5045225;28;19963;-76
2024/03/15 04:45:51;;;;;;;;;;;8.60;37.30;;;;;;5052148;28;19941;-76
2024/03/15 04:48:27;;;;;;;;;;;8.60;41.60;;;;;;5044151;28;20376;-75
2024/03/15 04:50:52;;;;;;;;;;;8.50;41.50;;;;;;5036688;28;19916;-75
2024/03/15 04:53:18;;;;;;;;;;;8.50;41.50;;;;;;5036778;28;19917;-76
2024/03/15 04:55:44;;;;;;;;;;;8.50;41.50;;;;;;5042824;28;20283;-75
2024/03/15 04:58:11;;;;;;;;;;;8.50;41.40;;;;;;5056513;28;19952;-75
2024/03/15 05:00:37;;;;;;;;;;;8.40;38.30;;;;;;5055077;28;20382;-75
2024/03/15 05:03:03;;;;;;;;;;;8.40;41.60;;;;;;5048133;28;19971;-75
2024/03/15 05:05:30;;;;;;;;;;;8.40;38.30;;;;;;5039262;28;19909;-75
2024/03/15 05:07:56;;;;;;;;;;;8.40;41.60;;;;;;5046554;28;19909;-75
2024/03/15 05:10:22;;;;;;;;;;;8.40;41.50;;;;;;5053768;28;19909;-75
2024/03/15 05:12:51;;;;;;;;;;;8.30;38.20;;;;;;5055377;28;19924;-76
2024/03/15 05:15:17;;;;;;;;;;;8.30;41.50;;;;;;5033830;28;19932;-75
2024/03/15 05:17:42;;;;;;;;;;;8.30;38.20;;;;;;5038751;28;19913;-75
2024/03/15 05:20:09;;;;;;;;;;;8.30;41.40;;;;;;5042268;28;19916;-75
2024/03/15 05:22:39;;;;;;;;;;;8.20;41.30;;;;;;5053753;28;19913;-76
2024/03/15 05:25:09;;;;;;;;;;;8.20;41.40;;;;;;5044253;28;20008;-75
2024/03/15 05:27:34;;;;;;;;;;;8.10;41.20;;;;;;5040907;28;19909;-75
2024/03/15 05:30:04;;;;;;;;;;;8.10;41.00;;;;;;5042196;28;19913;-75
2024/03/15 05:32:45;;;;;;;;;;;8.00;41.40;;;;;;5037237;28;19913;-78
2024/03/15 05:35:18;;;;;;;;;;;8.00;38.00;;;;;;5044846;28;19909;-78
2024/03/15 05:37:45;;;;;;;;;;;8.00;41.40;;;;;;5034789;28;19916;-77
2024/03/15 05:40:12;;;;;;;;;;;8.00;38.00;;;;;;5051417;28;20004;-81
2024/03/15 05:43:15;;;;;;;;;;;8.00;41.30;;;;;;5019290;28;19928;-78
2024/03/15 05:45:55;;;;;;;;;;;8.00;41.10;;;;;;5048687;28;19916;-77
2024/03/15 05:48:21;;;;;;;;;;;7.90;41.00;;;;;;5047903;28;20415;-76
2024/03/15 05:51:15;;;;;;;;;;;7.80;41.00;;;;;;5040699;28;19959;-77
2024/03/15 05:53:45;;;;;;;;;;;7.90;37.90;;;;;;5042292;28;19924;-77
2024/03/15 05:56:11;;;;;;;;;;;7.90;41.10;;;;;;5035058;28;19916;-77
2024/03/15 05:59:03;;;;;;;;;;;7.90;37.90;;;;;;5032201;28;19913;-77
2024/03/15 06:01:28;;;;;;;;;;;7.90;41.10;;;;;;5038311;28;19987;-77
2024/03/15 06:03:57;;;;;;;;;;;8.00;38.00;;;;;;5048488;28;20357;-75
2024/03/15 06:06:46;;;;;;;;;;;8.10;41.30;;;;;;5017626;28;20327;-75
2024/03/15 06:09:15;;;;;;;;;;;8.10;41.20;;;;;;5052146;28;19909;-75
2024/03/15 06:11:45;;;;;;;;;;;8.10;41.20;;;;;;5034725;28;19913;-75
2024/03/15 06:14:15;;;;;;;;;;;8.10;41.30;;;;;;5051605;28;19963;-77
2024/03/15 06:16:51;;;;;;;;;;;8.20;41.30;;;;;;5029889;28;19913;-75
2024/03/15 06:19:27;;;;;;;;;;;8.30;44.30;;;;;;5029104;28;20262;-77
2024/03/15 06:21:53;;;;;;;;;;;8.40;47.10;;;;;;5032591;28;20011;-77
2024/03/15 06:24:22;;;;;;;;;;;8.50;49.30;;;;;;5034240;28;19913;-77
2024/03/15 06:26:47;;;;;;;;;;;8.70;49.30;;;;;;5047486;28;19913;-77
2024/03/15 06:29:16;;;;;;;;;;;8.70;52.20;;;;;;5047789;28;19915;-77
2024/03/15 06:31:43;;;;;;;;;;;8.80;50.10;;;;;;5040451;28;19917;-77
2024/03/15 06:34:09;;;;;;;;;;;9.00;46.40;;;;;;5034009;28;19913;-77
2024/03/15 06:36:54;;;;;;;;;;;9.00;49.40;;;;;;5035669;28;19913;-77
2024/03/15 06:39:50;;;;;;;;;;;9.10;53.80;;;;;;5039486;28;20330;-77
2024/03/15 06:45:08;;;;;;;;;;;9.40;60.20;;;;;;5042325;28;19935;-77
2024/03/15 06:47:52;;;;;;;;;;;9.60;62.10;;;;;;5016565;28;19961;-77
2024/03/15 06:53:21;;;;;;;;;;;9.80;60.50;;;;;;5038795;28;19923;-78
2024/03/15 06:56:09;;;;;;;;;;;10.00;52.40;;;;;;5034157;28;19995;-77
2024/03/15 06:58:51;;;;;;;;;;;10.10;55.20;;;;;;5051231;28;19913;-77
2024/03/15 07:01:21;;;;;;;;;;;10.40;39.00;;;;;;5034254;28;20254;-77
2024/03/15 07:03:51;;;;;;;;;;;10.40;42.30;;;;;;5034716;28;19913;-76
2024/03/15 07:06:27;;;;;;;;;;;10.60;42.40;;;;;;5034037;28;19917;-77
2024/03/15 07:08:55;;;;;;;;;;;10.80;42.60;;;;;;5043698;28;19913;-77
2024/03/15 07:11:26;;;;;;;;;;;11.00;37.30;;;;;;5050083;28;19908;-79
2024/03/15 07:14:09;;;;;;;;;;;11.20;14.50;;;;;;5032381;28;20390;-77
2024/03/15 07:16:35;;;;;;;;;;;11.30;10.80;;;;;;5034124;28;19920;-77
2024/03/15 07:19:01;;;;;;;;;;;11.60;1.00;;;;;;5034638;28;19917;-75
2024/03/15 07:21:27;;;;;;;;;;;11.70;1.00;;;;;;5033287;28;19924;-75
2024/03/15 07:23:52;;;;;;;;;;;11.80;1.00;;;;;;5043699;28;19909;-75
2024/03/15 07:26:18;;;;;;;;;;;11.70;1.00;;;;;;5035072;28;19927;-75
2024/03/15 07:28:44;;;;;;;;;;;11.80;1.00;;;;;;5039982;28;19913;-75
2024/03/15 07:31:10;;;;;;;;;;;11.90;1.00;;;;;;5049325;28;20041;-75
2024/03/15 07:33:45;;;;;;;;;;;11.90;1.00;;;;;;5049982;28;19916;-75
2024/03/15 07:36:27;;;;;;;;;;;11.80;1.00;;;;;;5034542;28;19913;-77
2024/03/15 07:38:53;;;;;;;;;;;12.00;1.00;;;;;;5027192;28;19917;-77
2024/03/15 07:41:27;;;;;;;;;;;11.90;1.00;;;;;;5040019;28;19916;-77
2024/03/15 07:44:09;;;;;;;;;;;12.10;1.00;;;;;;5042130;28;19983;-77
2024/03/15 07:46:51;;;;;;;;;;;12.20;1.00;;;;;;5036972;28;19917;-77
2024/03/15 07:49:22;;;;;;;;;;;12.30;1.00;;;;;;5040632;28;19909;-75
2024/03/15 07:51:47;;;;;;;;;;;12.50;1.00;;;;;;5041246;28;19941;-75
2024/03/15 07:54:15;;;;;;;;;;;12.50;1.00;;;;;;5041112;28;19955;-75
2024/03/15 07:56:45;;;;;;;;;;;12.60;1.00;;;;;;5043937;28;19910;-75
2024/03/15 07:59:12;;;;;;;;;;;12.70;1.00;;;;;;5047500;28;19921;-75
2024/03/15 08:01:39;;;;;;;;;;;12.80;1.00;;;;;;5037387;28;20365;-76
2024/03/15 08:04:09;;;;;;;;;;;12.90;1.00;;;;;;5046031;28;19915;-75
2024/03/15 08:09:51;;;;;;;;;;;12.90;1.00;;;;;;5043398;28;19920;-77
2024/03/15 08:12:21;;;;;;;;;;;12.90;1.00;;;;;;5030376;28;20273;-78
2024/03/15 08:14:52;;;;;;;;;;;13.00;1.00;;;;;;5050326;28;19913;-77
2024/03/15 08:17:21;;;;;;;;;;;13.40;1.00;;;;;;5037070;28;20579;-77
2024/03/15 08:20:10;;;;;;;;;;;13.40;1.00;;;;;;5033752;28;20382;-77
2024/03/15 08:22:39;;;;;;;;;;;13.60;1.00;;;;;;5043007;28;19913;-77
2024/03/15 08:28:09;;;;;;;;;;;13.80;1.00;;;;;;5047067;28;20406;-77
2024/03/15 08:30:47;;;;;;;;;;;13.70;1.00;;;;;;5048231;28;19913;-78
2024/03/15 08:33:21;;;;;;;;;;;13.70;1.00;;;;;;5053174;28;19909;-78
2024/03/15 08:35:57;;;;;;;;;;;14.00;1.00;;;;;;5029963;28;19920;-75
2024/03/15 08:38:27;;;;;;;;;;;14.00;1.00;;;;;;5043944;28;19913;-75
2024/03/15 08:40:52;;;;;;;;;;;14.10;1.00;;;;;;5054628;28;19991;-75
2024/03/15 08:43:18;;;;;;;;;;;14.10;1.00;;;;;;5051414;28;20019;-77
2024/03/15 08:45:49;;;;;;;;;;;14.10;1.00;;;;;;5052948;28;19909;-77
2024/03/15 08:48:17;;;;;;;;;;;14.20;1.00;;;;;;5054292;28;19913;-76
2024/03/15 08:50:46;;;;;;;;;;;14.10;1.00;;;;;;5050187;28;19959;-73
2024/03/15 08:53:12;;;;;;;;;;;14.00;1.00;;;;;;5044357;28;19919;-77
2024/03/15 08:55:45;;;;;;;;;;;14.00;1.00;;;;;;5054136;28;19913;-76
2024/03/15 08:58:15;;;;;;;;;;;14.10;1.00;;;;;;5054647;28;20046;-77
2024/03/15 09:01:04;;;;;;;;;;;14.00;1.00;;;;;;5052324;28;19913;-76
2024/03/15 09:03:33;;;;;;;;;;;13.90;1.00;;;;;;5046625;28;19913;-75
2024/03/15 09:06:30;;;;;;;;;;;13.80;1.00;;;;;;5048989;28;19915;-78
2024/03/15 09:12:21;;;;;;;;;;;13.80;1.00;;;;;;4989210;28;19914;-84
2024/03/15 09:15:03;;;;;;;;;;;13.90;1.00;;;;;;4993250;28;19917;-85
2024/03/15 09:17:45;;;;;;;;;;;13.70;1.00;;;;;;4994226;28;19914;-85
2024/03/15 09:20:27;;;;;;;;;;;13.70;1.00;;;;;;4993960;28;19918;-78
2024/03/15 09:22:53;;;;;;;;;;;14.00;1.00;;;;;;4993685;28;20429;-75
2024/03/15 09:25:22;;;;;;;;;;;14.00;1.00;;;;;;4986621;28;19914;-75
2024/03/15 09:27:53;;;;;;;;;;;14.00;1.00;;;;;;4993565;28;20262;-75
2024/03/15 09:30:26;;;;;;;;;;;14.00;1.00;;;;;;4993210;28;19916;-75
2024/03/15 09:33:03;;;;;;;;;;;14.20;1.00;;;;;;4990681;28;19995;-75
2024/03/15 09:35:46;;;;;;;;;;;14.40;1.00;;;;;;4988968;28;19914;-77
2024/03/15 09:38:12;;;;;;;;;;;14.50;1.00;;;;;;4981649;28;20377;-77
2024/03/15 09:40:55;;;;;;;;;;;14.50;1.00;;;;;;4982433;28;19953;-77
2024/03/15 09:43:22;;;;;;;;;;;14.50;1.00;;;;;;4981804;28;20338;-77
2024/03/15 09:45:51;;;;;;;;;;;14.60;1.00;;;;;;4989432;28;19913;-78
2024/03/15 09:48:21;;;;;;;;;;;14.50;1.00;;;;;;5011942;28;19921;-78
2024/03/15 09:50:56;;;;;;;;;;;14.20;1.00;;;;;;5047994;28;19909;-75
2024/03/15 09:53:21;;;;;;;;;;;14.40;1.00;;;;;;5041731;28;19962;-75
2024/03/15 09:55:52;;;;;;;;;;;14.30;1.00;;;;;;5043772;28;20283;-76
2024/03/15 09:58:21;;;;;;;;;;;14.30;1.00;;;;;;5044631;28;20394;-75
2024/03/15 10:01:15;;;;;;;;;;;14.30;1.00;;;;;;5030769;28;20418;-75
2024/03/15 10:03:47;;;;;;;;;;;14.40;1.00;;;;;;5042491;28;19913;-76
2024/03/15 10:06:16;;;;;;;;;;;14.30;1.00;;;;;;5044381;28;19944;-76
2024/03/15 10:08:43;;;;;;;;;;;14.20;1.00;;;;;;5042766;28;20288;-76
2024/03/15 10:11:15;;;;;;;;;;;14.20;1.00;;;;;;5049000;28;19909;-76
2024/03/15 10:13:47;;;;;;;;;;;14.00;1.00;;;;;;5024659;28;20269;-76
2024/03/15 10:16:21;;;;;;;;;;;14.00;1.00;;;;;;5035077;28;19919;-76
2024/03/15 10:18:59;;;;;;;;;;;13.90;1.00;;;;;;5047942;28;19922;-76
2024/03/15 10:21:25;;;;;;;;;;;13.70;1.00;;;;;;5035435;28;20309;-77
2024/03/15 10:24:03;;;;;;;;;;;13.70;1.00;;;;;;5034558;28;19956;-77
2024/03/15 10:26:45;;;;;;;;;;;13.50;1.00;;;;;;5034777;28;19956;-77
2024/03/15 10:29:15;;;;;;;;;;;13.60;1.00;;;;;;5034744;28;19909;-77
2024/03/15 10:31:45;;;;;;;;;;;13.60;1.00;;;;;;5037984;28;19909;-78
2024/03/15 10:34:15;;;;;;;;;;;13.60;1.00;;;;;;5050265;28;19913;-77
2024/03/15 10:36:41;;;;;;;;;;;13.60;1.00;;;;;;5019409;28;19916;-75
2024/03/15 10:39:15;;;;;;;;;;;13.50;1.00;;;;;;5034445;28;19917;-76
2024/03/15 10:41:45;;;;;;;;;;;13.60;1.00;;;;;;5034654;28;19913;-76
2024/03/15 10:44:15;;;;;;;;;;;13.70;1.00;;;;;;5029011;28;19915;-75
2024/03/15 10:46:45;;;;;;;;;;;13.80;1.00;;;;;;5035039;28;19910;-75
2024/03/15 10:49:13;;;;;;;;;;;13.70;1.00;;;;;;5034435;28;20273;-76
2024/03/15 10:51:40;;;;;;;;;;;13.70;1.00;;;;;;5034862;28;19955;-76
2024/03/15 10:54:05;;;;;;;;;;;13.70;1.00;;;;;;5046244;28;20467;-75
2024/03/15 10:56:33;;;;;;;;;;;13.80;1.00;;;;;;5034847;28;19916;-76
2024/03/15 10:59:03;;;;;;;;;;;13.90;1.00;;;;;;5035032;28;19913;-75
2024/03/15 11:01:30;;;;;;;;;;;14.20;1.00;;;;;;5046056;28;20349;-76
2024/03/15 11:04:03;;;;;;;;;;;14.20;1.00;;;;;;5027124;28;19936;-75
2024/03/15 11:06:39;;;;;;;;;;;14.20;1.00;;;;;;5044617;28;19909;-76
2024/03/15 11:09:13;;;;;;;;;;;14.40;1.00;;;;;;5049767;28;19916;-76
2024/03/15 11:11:39;;;;;;;;;;;14.80;1.00;;;;;;5034980;28;19921;-76
2024/03/15 11:14:21;;;;;;;;;;;14.40;1.00;;;;;;5043202;28;19909;-76
2024/03/15 11:16:55;;;;;;;;;;;14.50;1.00;;;;;;5038467;28;19913;-75
2024/03/15 11:19:20;;;;;;;;;;;14.50;1.00;;;;;;5045434;28;20386;-76
2024/03/15 11:22:00;;;;;;;;;;;14.70;1.00;;;;;;5028657;28;19913;-77
2024/03/15 11:24:42;;;;;;;;;;;14.70;1.00;;;;;;5043877;28;19916;-77
2024/03/15 11:27:15;;;;;;;;;;;14.80;1.00;;;;;;5036193;28;20280;-78
2024/03/15 11:29:47;;;;;;;;;;;14.70;1.00;;;;;;5047876;28;19913;-78
2024/03/15 11:32:15;;;;;;;;;;;14.90;1.00;;;;;;5039266;28;19963;-86
2024/03/15 11:34:45;;;;;;;;;;;15.10;1.00;;;;;;5042791;28;19988;-85
2024/03/15 11:37:16;;;;;;;;;;;15.00;1.00;;;;;;5048969;28;19920;-82
2024/03/15 11:39:56;;;;;;;;;;;15.10;1.00;;;;;;5057430;28;19983;-82
2024/03/15 11:42:27;;;;;;;;;;;15.10;1.00;;;;;;5028932;28;19913;-77
2024/03/15 11:44:54;;;;;;;;;;;15.10;1.00;;;;;;5039519;28;19913;-77
2024/03/15 11:47:20;;;;;;;;;;;15.00;1.00;;;;;;5055603;28;19909;-77
2024/03/15 11:49:57;;;;;;;;;;;14.70;1.00;;;;;;5025604;28;19920;-77
2024/03/15 11:52:33;;;;;;;;;;;14.60;1.00;;;;;;5037607;28;19936;-78
2024/03/15 11:54:59;;;;;;;;;;;14.50;1.00;;;;;;5032702;28;19917;-79
2024/03/15 11:57:28;;;;;;;;;;;14.40;1.00;;;;;;5050847;28;19978;-78
2024/03/15 12:00:07;;;;;;;;;;;14.40;1.00;;;;;;5023625;28;19920;-78
2024/03/15 12:02:33;;;;;;;;;;;14.30;1.00;;;;;;5053589;28;19917;-78
2024/03/15 12:05:16;;;;;;;;;;;14.10;1.00;;;;;;5046825;28;19916;-78
2024/03/15 12:08:09;;;;;;;;;;;14.10;1.00;;;;;;5040810;28;20360;-76
2024/03/15 12:10:36;;;;;;;;;;;14.10;1.00;;;;;;5042922;28;19914;-77
2024/03/15 12:13:16;;;;;;;;;;;14.10;1.00;;;;;;5042520;28;19994;-77
2024/03/15 12:15:45;;;;;;;;;;;14.20;1.00;;;;;;5039907;28;19913;-77
2024/03/15 12:18:13;;;;;;;;;;;14.10;1.00;;;;;;5028605;28;19936;-77
2024/03/15 12:20:38;;;;;;;;;;;14.20;1.00;;;;;;5043621;28;20392;-77
2024/03/15 12:23:04;;;;;;;;;;;14.30;1.00;;;;;;5036818;28;19917;-77
2024/03/15 12:28:39;;;;;;;;;;;14.90;1.00;;;;;;5038789;28;19916;-78
2024/03/15 12:31:09;;;;;;;;;;;14.80;1.00;;;;;;5037113;28;19910;-78
2024/03/15 12:33:35;;;;;;;;;;;15.40;1.00;;;;;;5055202;28;19920;-78
2024/03/15 12:36:09;;;;;;;;;;;15.70;1.00;;;;;;5026620;28;19909;-77
2024/03/15 12:38:45;;;;;;;;;;;15.80;1.00;;;;;;5027898;28;19913;-78
2024/03/15 12:41:15;;;;;;;;;;;15.90;1.00;;;;;;5037552;28;19999;-78
2024/03/15 12:43:46;;;;;;;;;;;16.00;1.00;;;;;;5051339;28;19921;-78
2024/03/15 12:46:39;;;;;;;;;;;16.40;1.00;;;;;;5046881;28;19912;-78
2024/03/15 12:49:09;;;;;;;;;;;16.40;1.00;;;;;;5044831;28;19909;-78
2024/03/15 12:51:45;;;;;;;;;;;16.40;1.00;;;;;;5055426;28;19913;-82
2024/03/15 12:54:11;;;;;;;;;;;16.40;1.00;;;;;;5026743;28;19917;-78
2024/03/15 12:56:39;;;;;;;;;;;16.30;1.00;;;;;;5039893;28;19916;-72
2024/03/15 12:59:09;;;;;;;;;;;16.30;1.00;;;;;;5048372;28;19909;-82
2024/03/15 13:01:45;;;;;;;;;;;16.20;1.00;;;;;;5050382;28;19913;-79
2024/03/15 13:04:11;;;;;;;;;;;16.50;1.00;;;;;;5029293;28;19912;-77
2024/03/15 13:06:41;;;;;;;;;;;16.50;1.00;;;;;;5048305;28;19917;-75
2024/03/15 13:09:06;;;;;;;;;;;16.70;1.00;;;;;;5041286;28;19999;-80
2024/03/15 13:11:33;;;;;;;;;;;16.50;1.00;;;;;;5041469;28;20004;-80
2024/03/15 13:14:15;;;;;;;;;;;16.30;1.00;;;;;;5053691;28;19916;-80
2024/03/15 13:17:00;;;;;;;;;;;16.30;1.00;;;;;;5053909;28;20011;-81
2024/03/15 13:19:45;;;;;;;;;;;16.30;1.00;;;;;;5051515;28;19962;-80
2024/03/15 13:22:15;;;;;;;;;;;16.40;1.00;;;;;;5031519;28;19920;-81
2024/03/15 13:24:41;;;;;;;;;;;16.50;1.00;;;;;;5047772;28;19920;-76
2024/03/15 13:27:15;;;;;;;;;;;16.10;1.00;;;;;;5039182;28;19913;-75
2024/03/15 13:29:41;;;;;;;;;;;16.10;1.00;;;;;;5051264;28;19913;-77
2024/03/15 13:32:11;;;;;;;;;;;16.00;1.00;;;;;;5054143;28;19931;-76
2024/03/15 13:34:39;;;;;;;;;;;16.10;1.00;;;;;;5054976;28;19909;-76
2024/03/15 13:37:10;;;;;;;;;;;16.20;1.00;;;;;;5046907;28;20053;-76
2024/03/15 13:39:39;;;;;;;;;;;16.30;1.00;;;;;;5054986;28;20391;-77
2024/03/15 13:42:09;;;;;;;;;;;16.20;1.00;;;;;;5046916;28;20496;-77
2024/03/15 13:44:45;;;;;;;;;;;16.20;1.00;;;;;;5045650;28;19909;-77
2024/03/15 13:47:27;;;;;;;;;;;16.10;1.00;;;;;;5052851;28;19958;-77
2024/03/15 13:50:03;;;;;;;;;;;16.10;1.00;;;;;;5045830;28;19912;-76
2024/03/15 13:52:40;;;;;;;;;;;16.20;1.00;;;;;;5028460;28;19913;-77
2024/03/15 13:55:08;;;;;;;;;;;16.10;1.00;;;;;;5045377;28;20499;-76
2024/03/15 13:57:35;;;;;;;;;;;16.20;1.00;;;;;;5052294;28;19916;-77
2024/03/15 14:00:01;;;;;;;;;;;16.20;1.00;;;;;;5035108;28;19909;-77
2024/03/15 14:02:27;;;;;;;;;;;16.50;1.00;;;;;;5035481;28;19939;-77
2024/03/15 14:04:55;;;;;;;;;;;16.30;1.00;;;;;;5035603;28;19909;-77
2024/03/15 14:07:45;;;;;;;;;;;16.40;1.00;;;;;;5047615;28;19920;-77
2024/03/15 14:10:17;;;;;;;;;;;16.30;1.00;;;;;;5035893;28;19909;-74
2024/03/15 14:12:45;;;;;;;;;;;16.30;1.00;;;;;;5035066;28;19991;-82
2024/03/15 14:15:11;;;;;;;;;;;16.30;1.00;;;;;;5048953;28;19909;-75
2024/03/15 14:17:37;;;;;;;;;;;16.30;1.00;;;;;;5035483;28;19936;-75
2024/03/15 14:20:06;;;;;;;;;;;16.40;1.00;;;;;;5052010;28;19917;-74
2024/03/15 14:22:32;;;;;;;;;;;16.50;1.00;;;;;;5041525;28;19913;-74
2024/03/15 14:25:15;;;;;;;;;;;16.50;1.00;;;;;;5053363;28;20299;-77
2024/03/15 14:27:59;;;;;;;;;;;16.30;1.00;;;;;;5050408;28;19916;-76
2024/03/15 14:30:33;;;;;;;;;;;16.10;1.00;;;;;;5041197;28;19920;-76
2024/03/15 14:33:06;;;;;;;;;;;16.30;1.00;;;;;;5053409;28;19913;-76
2024/03/15 14:35:33;;;;;;;;;;;16.30;1.00;;;;;;5033544;28;20269;-76
2024/03/15 14:38:04;;;;;;;;;;;16.40;1.00;;;;;;5035751;28;20000;-75
2024/03/15 14:40:34;;;;;;;;;;;16.40;1.00;;;;;;5045749;28;19952;-74
2024/03/15 14:43:06;;;;;;;;;;;16.50;1.00;;;;;;5042571;28;19912;-75
2024/03/15 14:45:35;;;;;;;;;;;16.70;1.00;;;;;;5043299;28;20364;-74
2024/03/15 14:48:01;;;;;;;;;;;16.90;1.00;;;;;;5048682;28;19921;-74
2024/03/15 14:50:30;;;;;;;;;;;17.00;1.00;;;;;;5034294;28;19916;-74
2024/03/15 14:52:57;;;;;;;;;;;16.70;1.00;;;;;;5037139;28;19913;-75
2024/03/15 14:55:34;;;;;;;;;;;16.90;1.00;;;;;;5054573;28;19916;-76
2024/03/15 14:58:00;;;;;;;;;;;17.10;1.00;;;;;;5040668;28;19959;-76
2024/03/15 15:00:35;;;;;;;;;;;17.10;1.00;;;;;;5045738;28;20032;-76
2024/03/15 15:03:03;;;;;;;;;;;17.30;1.00;;;;;;5030542;28;19913;-77
2024/03/15 15:05:34;;;;;;;;;;;17.50;1.00;;;;;;5033731;28;19957;-77
2024/03/15 15:08:03;;;;;;;;;;;17.20;1.00;;;;;;5042384;28;19913;-77
2024/03/15 15:10:29;;;;;;;;;;;17.20;1.00;;;;;;5038689;28;20276;-78
2024/03/15 15:12:57;;;;;;;;;;;17.10;1.00;;;;;;5050276;28;19931;-82
2024/03/15 15:15:45;;;;;;;;;;;17.00;1.00;;;;;;5054028;28;19992;-83